createdAt,value
2018-06-14T00:00:58.059Z,55.30
2018-06-14T00:03:26.576Z,55.30
2018-06-14T00:05:55.146Z,55.30
2018-06-14T00:08:23.659Z,55.40
2018-06-14T00:10:52.176Z,55.40
2018-06-14T00:13:20.675Z,55.50
2018-06-14T00:15:49.234Z,55.50
2018-06-14T00:18:17.764Z,56.10
2018-06-14T00:20:46.311Z,55.50
2018-06-14T00:23:14.808Z,55.60
2018-06-14T00:25:43.326Z,55.60
2018-06-14T00:30:40.227Z,55.70
2018-06-14T00:33:08.921Z,55.70
2018-06-14T00:35:37.491Z,55.70
2018-06-14T00:38:06.043Z,55.70
2018-06-14T00:40:34.542Z,55.70
2018-06-14T00:43:03.056Z,55.70
2018-06-14T00:45:31.574Z,55.70
2018-06-14T00:48:00.082Z,55.80
2018-06-14T00:50:28.569Z,55.70
2018-06-14T00:52:57.156Z,55.80
2018-06-14T00:55:25.645Z,55.80
2018-06-14T00:57:54.219Z,56.00
2018-06-14T01:00:22.701Z,56.00
2018-06-14T01:02:51.269Z,56.00
2018-06-14T01:05:20.007Z,56.00
2018-06-14T01:07:48.506Z,56.00
2018-06-14T01:10:17.032Z,56.20
2018-06-14T01:12:45.515Z,56.10
2018-06-14T01:15:14.075Z,56.20
2018-06-14T01:17:42.647Z,56.20
2018-06-14T01:20:11.196Z,56.20
2018-06-14T01:22:39.697Z,56.20
2018-06-14T01:25:08.160Z,56.20
2018-06-14T01:27:36.617Z,56.20
2018-06-14T01:30:05.769Z,56.10
2018-06-14T01:32:34.274Z,56.00
2018-06-14T01:35:02.809Z,56.20
2018-06-14T01:37:42.388Z,56.20
2018-06-14T01:40:10.982Z,56.30
2018-06-14T01:42:39.504Z,56.30
2018-06-14T01:45:07.989Z,56.40
2018-06-14T01:47:36.472Z,56.40
2018-06-14T01:50:04.944Z,56.40
2018-06-14T01:52:33.415Z,56.30
2018-06-14T01:55:01.876Z,56.30
2018-06-14T01:57:30.405Z,56.30
2018-06-14T01:59:58.900Z,56.30
2018-06-14T02:02:27.403Z,56.30
2018-06-14T02:04:55.894Z,56.20
2018-06-14T02:07:24.401Z,56.10
2018-06-14T02:09:52.883Z,56.10
2018-06-14T02:12:21.367Z,56.10
2018-06-14T02:14:49.843Z,56.00
2018-06-14T02:17:18.287Z,56.00
2018-06-14T02:19:46.756Z,55.90
2018-06-14T02:22:15.222Z,55.80
2018-06-14T02:24:43.766Z,56.10
2018-06-14T02:27:12.265Z,56.10
2018-06-14T02:29:40.788Z,56.20
2018-06-14T02:32:09.248Z,56.50
2018-06-14T02:34:37.751Z,56.60
2018-06-14T02:37:06.413Z,56.60
2018-06-14T02:39:34.947Z,57.00
2018-06-14T02:42:03.447Z,57.10
2018-06-14T02:44:31.919Z,57.10
2018-06-14T02:47:00.388Z,57.20
2018-06-14T02:49:28.894Z,57.10
2018-06-14T02:51:57.480Z,57.10
2018-06-14T02:54:25.973Z,57.60
2018-06-14T02:56:54.423Z,57.00
2018-06-14T02:59:22.948Z,57.00
2018-06-14T03:01:51.395Z,57.00
2018-06-14T03:04:20.769Z,57.10
2018-06-14T03:06:49.267Z,57.20
2018-06-14T03:09:17.751Z,57.10
2018-06-14T03:11:46.220Z,57.20
2018-06-14T03:14:14.883Z,57.20
2018-06-14T03:16:43.362Z,57.20
2018-06-14T03:19:11.853Z,57.20
2018-06-14T03:21:40.412Z,57.20
2018-06-14T03:24:08.889Z,57.30
2018-06-14T03:26:37.371Z,57.60
2018-06-14T03:29:05.881Z,57.90
2018-06-14T03:31:34.380Z,58.10
2018-06-14T03:34:02.862Z,57.50
2018-06-14T03:36:31.422Z,57.50
2018-06-14T03:41:28.136Z,57.50
2018-06-14T03:43:56.649Z,57.50
2018-06-14T03:46:25.172Z,57.40
2018-06-14T03:48:53.633Z,57.50
2018-06-14T03:51:22.117Z,57.40
2018-06-14T03:53:50.588Z,57.40
2018-06-14T03:56:19.064Z,57.40
2018-06-14T03:58:47.551Z,57.40
2018-06-14T04:01:16.025Z,57.40
2018-06-14T04:03:44.493Z,57.30
2018-06-14T04:06:13.010Z,57.30
2018-06-14T04:08:41.518Z,57.20
2018-06-14T04:11:09.981Z,57.30
2018-06-14T04:13:38.472Z,57.30
2018-06-14T04:16:06.951Z,57.20
2018-06-14T04:18:35.453Z,57.20
2018-06-14T04:21:03.919Z,57.20
2018-06-14T04:23:32.450Z,57.10
2018-06-14T04:26:00.919Z,57.20
2018-06-14T04:28:29.504Z,57.20
2018-06-14T04:30:58.009Z,57.20
2018-06-14T04:33:26.660Z,57.90
2018-06-14T04:35:55.150Z,57.30
2018-06-14T04:38:23.620Z,57.20
2018-06-14T04:40:52.301Z,57.00
2018-06-14T04:43:20.795Z,56.80
2018-06-14T04:45:49.287Z,56.90
2018-06-14T04:48:17.734Z,56.90
2018-06-14T04:50:46.207Z,56.90
2018-06-14T04:53:14.670Z,57.00
2018-06-14T04:55:43.203Z,57.00
2018-06-14T04:58:11.714Z,56.80
2018-06-14T05:00:40.214Z,56.70
2018-06-14T05:03:08.784Z,56.80
2018-06-14T05:05:37.276Z,56.90
2018-06-14T05:08:05.791Z,56.90
2018-06-14T05:10:34.274Z,56.90
2018-06-14T05:13:02.750Z,56.90
2018-06-14T05:15:31.243Z,57.10
2018-06-14T05:17:59.814Z,57.00
2018-06-14T05:20:28.278Z,57.70
2018-06-14T05:22:56.754Z,57.10
2018-06-14T05:25:25.200Z,57.20
2018-06-14T05:27:53.687Z,57.30
2018-06-14T05:30:22.181Z,57.30
2018-06-14T05:35:19.002Z,57.20
2018-06-14T05:37:47.485Z,57.10
2018-06-14T05:40:16.468Z,57.10
2018-06-14T05:42:44.945Z,57.20
2018-06-14T05:45:13.410Z,57.30
2018-06-14T05:50:10.041Z,57.30
2018-06-14T05:52:38.489Z,57.30
2018-06-14T05:55:07.014Z,57.30
2018-06-14T05:57:35.455Z,57.20
2018-06-14T06:00:04.754Z,57.80
2018-06-14T06:02:33.409Z,57.10
2018-06-14T06:05:01.846Z,57.10
2018-06-14T06:07:30.308Z,57.10
2018-06-14T06:09:58.752Z,57.20
2018-06-14T06:12:27.403Z,57.10
2018-06-14T06:14:55.986Z,57.20
2018-06-14T06:17:24.498Z,57.10
2018-06-14T06:19:53.061Z,57.00
2018-06-14T06:22:21.698Z,57.00
2018-06-14T06:24:50.164Z,57.00
2018-06-14T06:27:18.618Z,57.10
2018-06-14T06:29:47.103Z,57.10
2018-06-14T06:32:15.602Z,57.20
2018-06-14T06:34:44.093Z,57.20
2018-06-14T06:37:12.522Z,57.30
2018-06-14T06:39:41.037Z,57.10
2018-06-14T06:42:09.488Z,57.10
2018-06-14T06:44:37.945Z,57.00
2018-06-14T06:47:06.476Z,57.00
2018-06-14T06:49:34.990Z,57.00
2018-06-14T06:52:03.657Z,57.00
2018-06-14T06:54:32.150Z,56.90
2018-06-14T06:57:00.582Z,57.00
2018-06-14T06:59:29.080Z,57.20
2018-06-14T07:04:25.707Z,57.10
2018-06-14T07:06:54.183Z,56.80
2018-06-14T07:09:22.669Z,56.60
2018-06-14T07:11:51.181Z,56.50
2018-06-14T07:14:19.604Z,56.40
2018-06-14T07:16:48.059Z,56.30
2018-06-14T07:19:16.541Z,56.10
2018-06-14T07:21:45.064Z,55.80
2018-06-14T07:24:13.526Z,55.80
2018-06-14T07:26:42.007Z,55.60
2018-06-14T07:29:10.551Z,55.50
2018-06-14T07:31:39.048Z,55.50
2018-06-14T07:34:07.506Z,55.50
2018-06-14T07:36:35.966Z,55.60
2018-06-14T07:39:07.464Z,55.60
2018-06-14T07:41:35.956Z,55.70
2018-06-14T07:44:04.416Z,55.90
2018-06-14T07:46:33.307Z,56.10
2018-06-14T07:49:02.128Z,56.00
2018-06-14T07:51:30.729Z,56.00
2018-06-14T07:53:59.212Z,55.90
2018-06-14T07:56:27.707Z,55.90
2018-06-14T07:58:56.590Z,55.70
2018-06-14T08:01:25.050Z,55.70
2018-06-14T08:03:53.802Z,55.60
2018-06-14T08:06:22.269Z,55.80
2018-06-14T08:08:50.764Z,55.80
2018-06-14T08:11:19.233Z,55.80
2018-06-14T08:13:47.671Z,55.70
2018-06-14T08:16:16.212Z,55.60
2018-06-14T08:18:44.678Z,55.50
2018-06-14T08:21:13.139Z,55.50
2018-06-14T08:23:41.614Z,55.30
2018-06-14T08:26:10.072Z,55.30
2018-06-14T08:28:38.542Z,55.20
2018-06-14T08:31:07.116Z,55.00
2018-06-14T08:33:35.723Z,55.00
2018-06-14T08:36:04.278Z,55.00
2018-06-14T08:38:32.753Z,55.00
2018-06-14T08:41:01.201Z,54.90
2018-06-14T08:43:29.631Z,54.80
2018-06-14T08:45:58.120Z,54.70
2018-06-14T08:48:26.559Z,54.60
2018-06-14T08:50:55.026Z,54.50
2018-06-14T08:53:23.494Z,54.50
2018-06-14T08:55:51.987Z,54.40
2018-06-14T08:58:20.478Z,54.40
2018-06-14T09:00:48.976Z,54.30
2018-06-14T09:03:17.557Z,54.20
2018-06-14T09:05:45.999Z,54.30
2018-06-14T09:08:14.486Z,54.10
2018-06-14T09:10:42.967Z,54.00
2018-06-14T09:13:11.527Z,54.00
2018-06-14T09:15:40.007Z,53.90
2018-06-14T09:18:08.531Z,53.80
2018-06-14T09:20:37.004Z,53.70
2018-06-14T09:23:05.906Z,53.80
2018-06-14T09:25:34.351Z,53.80
2018-06-14T09:28:02.842Z,53.70
2018-06-14T09:30:31.325Z,53.50
2018-06-14T09:32:59.946Z,53.50
2018-06-14T09:35:28.404Z,53.60
2018-06-14T09:37:56.897Z,53.70
2018-06-14T09:40:25.369Z,53.70
2018-06-14T09:42:54.134Z,53.80
2018-06-14T09:45:22.858Z,53.60
2018-06-14T09:47:51.392Z,53.50
2018-06-14T09:50:19.913Z,53.50
2018-06-14T09:52:48.394Z,52.90
2018-06-14T09:55:16.989Z,53.30
2018-06-14T09:57:45.450Z,53.00
2018-06-14T10:00:13.947Z,53.00
2018-06-14T10:02:42.627Z,52.70
2018-06-14T10:05:11.133Z,53.10
2018-06-14T10:07:39.573Z,52.30
2018-06-14T10:10:08.115Z,52.10
2018-06-14T10:12:37.716Z,52.70
2018-06-14T10:15:06.246Z,51.90
2018-06-14T10:17:34.703Z,52.10
2018-06-14T10:20:03.217Z,52.00
2018-06-14T10:22:31.722Z,51.90
2018-06-14T10:25:02.285Z,51.80
2018-06-14T10:27:30.773Z,51.50
2018-06-14T10:29:59.282Z,51.60
2018-06-14T10:32:27.714Z,51.40
2018-06-14T10:34:56.261Z,51.40
2018-06-14T10:37:24.781Z,51.20
2018-06-14T10:39:53.270Z,51.20
2018-06-14T10:42:21.732Z,51.00
2018-06-14T10:44:50.263Z,51.50
2018-06-14T10:47:18.675Z,51.00
2018-06-14T10:49:47.175Z,51.00
2018-06-14T10:52:17.570Z,50.80
2018-06-14T10:54:46.184Z,50.80
2018-06-14T10:57:14.712Z,50.80
2018-06-14T10:59:43.245Z,51.10
2018-06-14T11:02:11.719Z,51.10
2018-06-14T11:04:40.228Z,50.90
2018-06-14T11:07:08.784Z,50.60
2018-06-14T11:09:37.251Z,50.40
2018-06-14T11:12:05.939Z,50.40
2018-06-14T11:14:34.437Z,50.30
2018-06-14T11:17:02.919Z,50.90
2018-06-14T11:19:31.369Z,50.70
2018-06-14T11:21:59.913Z,50.90
2018-06-14T11:24:28.370Z,50.80
2018-06-14T11:26:56.799Z,50.70
2018-06-14T11:29:25.264Z,51.00
2018-06-14T11:31:53.858Z,50.30
2018-06-14T11:34:22.352Z,50.30
2018-06-14T11:36:50.964Z,50.10
2018-06-14T11:39:19.510Z,49.90
2018-06-14T11:41:47.913Z,49.80
2018-06-14T11:44:16.472Z,49.80
2018-06-14T11:46:45.216Z,50.10
2018-06-14T11:49:13.735Z,50.10
2018-06-14T11:51:42.262Z,50.10
2018-06-14T11:54:10.886Z,50.30
2018-06-14T11:56:39.461Z,50.00
2018-06-14T11:59:07.960Z,49.70
2018-06-14T12:01:36.486Z,49.80
2018-06-14T12:04:05.042Z,49.80
2018-06-14T12:06:33.537Z,50.00
2018-06-14T12:09:02.874Z,50.30
2018-06-14T12:11:31.432Z,49.60
2018-06-14T12:13:59.879Z,49.70
2018-06-14T12:16:28.446Z,49.70
2018-06-14T12:18:59.276Z,49.70
2018-06-14T12:21:27.777Z,49.60
2018-06-14T12:23:56.190Z,49.20
2018-06-14T12:26:24.670Z,49.10
2018-06-14T12:28:53.166Z,48.90
2018-06-14T12:31:21.758Z,48.90
2018-06-14T12:33:50.246Z,48.90
2018-06-14T12:36:18.942Z,48.80
2018-06-14T12:38:47.443Z,48.70
2018-06-14T12:43:44.436Z,48.40
2018-06-14T12:46:12.945Z,48.30
2018-06-14T12:48:41.490Z,48.10
2018-06-14T12:51:09.961Z,48.20
2018-06-14T12:53:38.459Z,48.20
2018-06-14T12:56:07.700Z,48.30
2018-06-14T12:58:36.447Z,48.10
2018-06-14T13:01:04.945Z,48.00
2018-06-14T13:03:33.988Z,48.00
2018-06-14T13:06:02.446Z,48.00
2018-06-14T13:08:30.951Z,48.00
2018-06-14T13:10:59.784Z,47.70
2018-06-14T13:13:28.333Z,47.60
2018-06-14T13:15:56.915Z,46.90
2018-06-14T13:18:25.498Z,46.90
2018-06-14T13:20:53.968Z,46.80
2018-06-14T13:23:22.472Z,47.30
2018-06-14T13:25:50.903Z,47.10
2018-06-14T13:28:19.385Z,47.20
2018-06-14T13:30:47.939Z,47.20
2018-06-14T13:33:16.519Z,47.30
2018-06-14T13:35:45.103Z,46.80
2018-06-14T13:38:13.628Z,46.90
2018-06-14T13:40:42.467Z,46.90
2018-06-14T13:43:10.971Z,46.70
2018-06-14T13:45:39.549Z,46.70
2018-06-14T13:48:08.028Z,46.80
2018-06-14T13:50:37.410Z,46.90
2018-06-14T13:55:34.521Z,46.80
2018-06-14T13:58:03.526Z,46.50
2018-06-14T14:00:31.999Z,46.60
2018-06-14T14:03:00.667Z,46.60
2018-06-14T14:05:29.143Z,46.60
2018-06-14T14:07:57.748Z,46.60
2018-06-14T14:10:26.475Z,46.80
2018-06-14T14:12:55.129Z,46.80
2018-06-14T14:15:23.789Z,46.80
2018-06-14T14:17:52.384Z,46.80
2018-06-14T14:20:20.871Z,46.80
2018-06-14T14:22:49.537Z,46.70
2018-06-14T14:25:18.343Z,46.70
2018-06-14T14:27:48.590Z,46.70
2018-06-14T14:30:17.458Z,46.70
2018-06-14T14:32:45.995Z,46.70
2018-06-14T14:35:14.804Z,46.70
2018-06-14T14:37:43.353Z,46.80
2018-06-14T14:40:11.887Z,46.80
2018-06-14T14:42:42.813Z,46.80
2018-06-14T14:45:11.337Z,46.80
2018-06-14T14:50:08.160Z,46.40
2018-06-14T14:52:36.599Z,46.10
2018-06-14T14:55:05.074Z,45.90
2018-06-14T14:57:33.855Z,45.70
2018-06-14T15:00:02.337Z,45.80
2018-06-14T15:02:30.782Z,45.90
2018-06-14T15:04:59.316Z,45.90
2018-06-14T15:07:27.834Z,45.80
2018-06-14T15:09:56.395Z,45.80
2018-06-14T15:12:24.835Z,45.80
2018-06-14T15:14:53.334Z,45.80
2018-06-14T15:17:21.854Z,45.70
2018-06-14T15:19:50.353Z,45.80
2018-06-14T15:22:18.806Z,45.90
2018-06-14T15:24:47.288Z,46.00
2018-06-14T15:27:15.720Z,46.00
2018-06-14T15:29:44.482Z,45.90
2018-06-14T15:32:12.993Z,45.90
2018-06-14T15:34:41.473Z,46.00
2018-06-14T15:37:10.137Z,46.00
2018-06-14T15:39:38.637Z,46.00
2018-06-14T15:42:07.134Z,46.10
2018-06-14T15:44:35.657Z,46.00
2018-06-14T15:47:04.097Z,46.00
2018-06-14T15:49:32.554Z,45.90
2018-06-14T15:52:01.077Z,45.90
2018-06-14T15:54:29.506Z,46.00
2018-06-14T15:56:58.014Z,45.70
2018-06-14T15:59:26.480Z,45.70
2018-06-14T16:01:54.964Z,45.60
2018-06-14T16:04:23.402Z,45.60
2018-06-14T16:06:51.844Z,45.50
2018-06-14T16:09:20.323Z,45.60
2018-06-14T16:11:48.779Z,45.60
2018-06-14T16:14:17.266Z,45.60
2018-06-14T16:16:45.750Z,45.60
2018-06-14T16:19:14.215Z,45.60
2018-06-14T16:21:42.650Z,45.60
2018-06-14T16:24:11.075Z,45.60
2018-06-14T16:26:39.559Z,45.50
2018-06-14T16:29:08.040Z,45.60
2018-06-14T16:31:36.554Z,45.70
2018-06-14T16:34:05.003Z,45.60
2018-06-14T16:36:33.459Z,45.60
2018-06-14T16:39:01.875Z,45.70
2018-06-14T16:41:30.368Z,45.80
2018-06-14T16:43:58.848Z,45.70
2018-06-14T16:46:27.280Z,45.60
2018-06-14T16:48:55.821Z,45.50
2018-06-14T16:51:24.267Z,45.40
2018-06-14T16:53:52.785Z,45.90
2018-06-14T16:56:21.259Z,46.40
2018-06-14T16:58:49.725Z,46.90
2018-06-14T17:01:18.156Z,47.50
2018-06-14T17:03:46.640Z,49.60
2018-06-14T17:06:15.167Z,50.00
2018-06-14T17:08:43.611Z,50.30
2018-06-14T17:11:12.057Z,50.50
2018-06-14T17:13:40.485Z,50.90
2018-06-14T17:16:08.930Z,51.10
2018-06-14T17:18:37.427Z,51.40
2018-06-14T17:21:05.870Z,51.40
2018-06-14T17:23:34.313Z,51.30
2018-06-14T17:26:02.767Z,51.70
2018-06-14T17:28:31.186Z,51.80
2018-06-14T17:30:59.722Z,52.00
2018-06-14T17:33:28.237Z,52.10
2018-06-14T17:35:56.693Z,52.20
2018-06-14T17:38:25.157Z,52.30
2018-06-14T17:40:53.584Z,52.40
2018-06-14T17:43:22.155Z,52.60
2018-06-14T17:45:50.575Z,52.80
2018-06-14T17:48:19.070Z,52.80
2018-06-14T17:50:47.534Z,53.00
2018-06-14T17:53:16.030Z,53.10
2018-06-14T17:55:44.486Z,53.10
2018-06-14T17:58:12.962Z,53.60
2018-06-14T18:00:41.454Z,53.40
2018-06-14T18:03:10.001Z,53.50
2018-06-14T18:05:39.409Z,53.70
2018-06-14T18:08:09.104Z,53.80
2018-06-14T18:10:37.988Z,53.80
2018-06-14T18:13:06.502Z,53.80
2018-06-14T18:15:35.041Z,53.90
2018-06-14T18:18:03.470Z,54.10
2018-06-14T18:20:31.929Z,54.20
2018-06-14T18:23:00.407Z,54.30
2018-06-14T18:25:28.891Z,54.40
2018-06-14T18:27:57.334Z,54.50
2018-06-14T18:30:25.868Z,54.60
2018-06-14T18:32:54.446Z,54.70
2018-06-14T18:35:22.865Z,54.80
2018-06-14T18:37:51.342Z,55.00
2018-06-14T18:40:19.789Z,55.10
2018-06-14T18:42:48.232Z,55.10
2018-06-14T18:45:16.696Z,55.30
2018-06-14T18:47:45.140Z,55.40
2018-06-14T18:50:13.559Z,55.50
2018-06-14T18:52:41.993Z,55.60
2018-06-14T18:55:10.425Z,55.70
2018-06-14T18:57:38.879Z,55.70
2018-06-14T19:00:07.345Z,55.80
2018-06-14T19:02:35.785Z,56.00
2018-06-14T19:05:06.108Z,56.20
2018-06-14T19:07:34.779Z,56.20
2018-06-14T19:10:03.267Z,56.20
2018-06-14T19:12:31.717Z,56.40
2018-06-14T19:15:00.246Z,56.60
2018-06-14T19:17:28.785Z,56.40
2018-06-14T19:19:57.186Z,56.40
2018-06-14T19:22:25.613Z,56.50
2018-06-14T19:24:54.120Z,56.70
2018-06-14T19:27:22.550Z,56.80
2018-06-14T19:29:51.011Z,56.90
2018-06-14T19:32:19.508Z,56.80
2018-06-14T19:34:48.013Z,57.00
2018-06-14T19:37:16.493Z,57.10
2018-06-14T19:39:44.941Z,57.10
2018-06-14T19:42:13.361Z,57.20
2018-06-14T19:44:41.824Z,57.20
2018-06-14T19:47:10.279Z,57.30
2018-06-14T19:49:38.754Z,57.30
2018-06-14T19:52:07.240Z,57.40
2018-06-14T19:54:35.687Z,57.40
2018-06-14T19:57:04.165Z,57.40
2018-06-14T19:59:32.614Z,57.50
2018-06-14T20:02:01.096Z,57.60
2018-06-14T20:04:29.558Z,57.70
2018-06-14T20:06:58.015Z,57.70
2018-06-14T20:09:26.615Z,57.90
2018-06-14T20:11:55.089Z,58.00
2018-06-14T20:14:23.561Z,58.10
2018-06-14T20:16:52.238Z,58.10
2018-06-14T20:19:20.650Z,58.20
2018-06-14T20:21:49.098Z,58.20
2018-06-14T20:24:17.523Z,58.20
2018-06-14T20:26:46.000Z,58.30
2018-06-14T20:29:14.458Z,58.30
2018-06-14T20:31:42.999Z,58.30
2018-06-14T20:34:11.418Z,58.40
2018-06-14T20:36:40.052Z,58.40
2018-06-14T20:39:10.737Z,58.30
2018-06-14T20:41:39.159Z,58.40
2018-06-14T20:44:07.973Z,58.40
2018-06-14T20:46:36.464Z,58.40
2018-06-14T20:49:04.936Z,58.50
2018-06-14T20:51:33.412Z,58.60
2018-06-14T20:54:02.088Z,58.80
2018-06-14T20:56:30.528Z,58.60
2018-06-14T20:58:59.051Z,58.50
2018-06-14T21:01:27.480Z,58.50
2018-06-14T21:03:55.977Z,58.50
2018-06-14T21:06:24.782Z,58.60
2018-06-14T21:08:53.235Z,58.50
2018-06-14T21:11:21.689Z,58.50
2018-06-14T21:13:50.210Z,58.60
2018-06-14T21:16:18.658Z,58.50
2018-06-14T21:18:47.180Z,58.50
2018-06-14T21:21:15.849Z,58.50
2018-06-14T21:23:44.349Z,58.70
2018-06-14T21:26:12.923Z,58.80
2018-06-14T21:28:41.476Z,58.80
2018-06-14T21:31:11.016Z,58.90
2018-06-14T21:33:39.511Z,59.00
2018-06-14T21:36:08.339Z,58.90
2018-06-14T21:38:37.802Z,59.10
2018-06-14T21:41:06.442Z,59.10
2018-06-14T21:43:34.911Z,59.10
2018-06-14T21:46:04.318Z,59.30
2018-06-14T21:48:34.533Z,59.40
2018-06-14T21:51:03.175Z,59.20
2018-06-14T21:53:31.631Z,59.50
2018-06-14T21:56:00.158Z,59.60
2018-06-14T21:58:28.655Z,59.60
2018-06-14T22:00:57.422Z,59.30
2018-06-14T22:03:31.188Z,59.80
2018-06-14T22:06:01.208Z,59.60
2018-06-14T22:08:29.938Z,59.40
2018-06-14T22:10:58.517Z,59.60
2018-06-14T22:13:26.968Z,59.70
2018-06-14T22:15:55.409Z,59.70
2018-06-14T22:18:23.930Z,59.70
2018-06-14T22:20:52.373Z,59.70
2018-06-14T22:23:21.014Z,60.40
2018-06-14T22:25:49.553Z,59.80
2018-06-14T22:28:18.188Z,59.80
2018-06-14T22:30:46.771Z,59.80
2018-06-14T22:35:49.018Z,59.90
2018-06-14T22:38:17.952Z,60.00
2018-06-14T22:40:46.533Z,60.10
2018-06-14T22:43:15.143Z,60.30
2018-06-14T22:45:43.703Z,60.20
2018-06-14T22:48:12.223Z,60.30
2018-06-14T22:50:51.816Z,60.30
2018-06-14T22:53:20.440Z,60.40
2018-06-14T22:55:48.914Z,60.40
2018-06-14T22:58:17.419Z,60.50
2018-06-14T23:01:50.588Z,60.50
2018-06-14T23:04:26.562Z,60.50
2018-06-14T23:06:55.191Z,60.40
2018-06-14T23:10:43.050Z,60.50
2018-06-14T23:13:13.976Z,60.60
2018-06-14T23:15:42.601Z,60.50
2018-06-14T23:18:11.391Z,60.50
2018-06-14T23:20:39.967Z,60.60
2018-06-14T23:23:08.971Z,60.70
2018-06-14T23:25:37.966Z,60.70
2018-06-14T23:28:06.705Z,60.80
2018-06-14T23:30:35.246Z,60.80
2018-06-14T23:33:03.821Z,60.90
2018-06-14T23:35:32.381Z,60.90
2018-06-14T23:38:00.999Z,60.90
2018-06-14T23:40:29.622Z,60.90
2018-06-14T23:42:58.205Z,61.00
2018-06-14T23:45:26.682Z,61.10
2018-06-14T23:47:55.207Z,61.10
2018-06-14T23:50:23.800Z,61.20
2018-06-14T23:52:52.322Z,61.20
2018-06-14T23:55:20.873Z,61.30
2018-06-14T23:57:49.395Z,61.30
